Taiki Maru — JI3464 — position and weather

sailwx.info

Track history (hours):
 
Tides and Currents Weather Stations Pressure Air Temp Water Temp Dewpoint Dewpoint Depression Visibility Wind Speed Wind Dir Waves Ship Positions

Taiki Maru

Last reported at 2014-Nov-28 12:33 UTC. Time now 2014-Nov-28 15:51 UTC.
Position N 34°07' E 134°57'.

Length 93 m; draft 6.2 m.

Type: Cargo ship. MMSI: 431300622.

Date/timePositionNaut miles runAvg speedWind from/ knotsBaromVisibWave heightAir tempDewpointWater temp
2014-Nov-28 12:33N 34°07' E 134°57'1111.0
2014-Nov-28 11:33N 34°14' E 135°07'1 0.5
2014-Nov-28 10:26N 34°14' E 135°08'0 0.0
2014-Nov-28 09:30N 34°14' E 135°08'0 0.0
2014-Nov-28 08:33N 34°14' E 135°08'0 0.1
2014-Nov-28 07:34N 34°14' E 135°08'0 0.0
2014-Nov-28 06:34N 34°14' E 135°08'0 0.0
2014-Nov-28 05:34N 34°14' E 135°08'6 5.8
2014-Nov-28 04:34N 34°10' E 135°02'24011.4
2014-Nov-27 07:29N 35°10' E 139°45'1111.9
2014-Nov-27 06:33N 35°21' E 139°42'1312.6
2014-Nov-27 05:33N 35°30' E 139°53'4 0.6
2014-Nov-26 22:31N 35°29' E 139°58'1111.2
2014-Nov-26 21:33N 35°27' E 139°45'5 4.5
2014-Nov-26 20:33N 35°29' E 139°40'0 0.0
2014-Nov-26 19:33N 35°29' E 139°40'0 0.0
2014-Nov-26 18:33N 35°29' E 139°40'0 0.0
2014-Nov-26 17:33N 35°29' E 139°40'0 0.0
2014-Nov-26 16:33N 35°29' E 139°40'0 0.0
2014-Nov-26 15:33N 35°29' E 139°40'0 0.0
2014-Nov-26 14:33N 35°29' E 139°40'0 0.0
2014-Nov-26 13:33N 35°29' E 139°40'0 0.0
2014-Nov-26 12:33N 35°29' E 139°40'0 0.0
2014-Nov-26 11:33N 35°29' E 139°40'0 0.0
2014-Nov-26 10:33N 35°29' E 139°40'0 0.0
2014-Nov-26 09:33N 35°29' E 139°40'0 0.0
2014-Nov-26 08:30N 35°29' E 139°40'0 0.0
2014-Nov-26 07:33N 35°29' E 139°40'0 0.0
2014-Nov-26 06:33N 35°29' E 139°40'0 0.0
2014-Nov-26 05:33N 35°29' E 139°40'0 0.0
2014-Nov-26 04:33N 35°29' E 139°40'0 0.0
2014-Nov-26 03:33N 35°29' E 139°40'1 1.1
2014-Nov-26 02:33N 35°28' E 139°40'6 5.7
2014-Nov-26 01:31N 35°23' E 139°44'0 0.0
2014-Nov-26 00:31N 35°23' E 139°44'0 0.0
2014-Nov-25 23:31N 35°23' E 139°44'0 0.0
2014-Nov-25 22:31N 35°23' E 139°44'0 0.0
2014-Nov-25 21:31N 35°23' E 139°44'0 0.0
2014-Nov-25 20:31N 35°23' E 139°44'1 0.7
2014-Nov-25 19:33N 35°22' E 139°44'1010.0
2014-Nov-25 18:33N 35°13' E 139°47'  
2014-Nov-23 04:27N 34°02' E 134°57'10 2.1
2014-Nov-22 23:30N 34°07' E 135°08'2 2.1
2014-Nov-22 22:33N 34°08' E 135°06'0 0.0
2014-Nov-22 21:33N 34°08' E 135°06'0 0.1
2014-Nov-22 20:33N 34°08' E 135°06'0 0.0
2014-Nov-22 19:33N 34°08' E 135°06'0 0.0
2014-Nov-22 18:33N 34°08' E 135°06'0 0.0
2014-Nov-22 17:33N 34°08' E 135°06'0 0.0
2014-Nov-22 16:33N 34°08' E 135°06'0 0.0
2014-Nov-22 15:33N 34°08' E 135°06'0 0.5
2014-Nov-22 14:33N 34°08' E 135°06'6 0.3
2014-Nov-21 15:24N 34°03' E 135°00'1112.8
2014-Nov-21 14:33N 34°13' E 135°04'3 3.5
2014-Nov-21 13:33N 34°14' E 135°08'0 0.0
2014-Nov-21 12:34N 34°14' E 135°08'0 0.0
2014-Nov-21 11:34N 34°14' E 135°08'0 0.0
2014-Nov-21 10:33N 34°14' E 135°08'0 0.0
2014-Nov-21 09:33N 34°14' E 135°08'0 0.0
2014-Nov-21 08:33N 34°14' E 135°08'0 0.0
2014-Nov-21 07:33N 34°14' E 135°08'0 0.0
2014-Nov-21 06:28N 34°14' E 135°08'0 0.0
2014-Nov-21 05:28N 34°14' E 135°08'0 0.1
2014-Nov-21 04:31N 34°14' E 135°08'0 0.0
2014-Nov-21 03:28N 34°14' E 135°08'0 0.0
2014-Nov-21 02:28N 34°14' E 135°08'0 0.0
2014-Nov-21 01:28N 34°14' E 135°08'0 0.0
2014-Nov-21 00:04N 34°14' E 135°08'0 0.0
2014-Nov-20 22:25N 34°14' E 135°08'0 0.4
2014-Nov-20 21:34N 34°14' E 135°07'9 9.3
2014-Nov-20 20:34N 34°07' E 135°00'218 8.3
2014-Nov-19 18:15N 31°48' E 131°40'  
Track history (hours):
 
Tides and Currents Weather Stations Pressure Air Temp Water Temp Dewpoint Dewpoint Depression Visibility Wind Speed Wind Dir Waves Ship Positions

Taiki Maru

Last reported at 2014-Nov-28 12:33 UTC. Time now 2014-Nov-28 15:51 UTC.
Position N 34°07' E 134°57'.

Length 93 m; draft 6.2 m.

Type: Cargo ship. MMSI: 431300622.

Date/timePositionNaut miles runAvg speedWind from/ knotsBaromVisibWave heightAir tempDewpointWater temp
2014-Nov-28 12:33N 34°07' E 134°57'1111.0
2014-Nov-28 11:33N 34°14' E 135°07'1 0.5
2014-Nov-28 10:26N 34°14' E 135°08'0 0.0
2014-Nov-28 09:30N 34°14' E 135°08'0 0.0
2014-Nov-28 08:33N 34°14' E 135°08'0 0.1
2014-Nov-28 07:34N 34°14' E 135°08'0 0.0
2014-Nov-28 06:34N 34°14' E 135°08'0 0.0
2014-Nov-28 05:34N 34°14' E 135°08'6 5.8
2014-Nov-28 04:34N 34°10' E 135°02'24011.4
2014-Nov-27 07:29N 35°10' E 139°45'1111.9
2014-Nov-27 06:33N 35°21' E 139°42'1312.6
2014-Nov-27 05:33N 35°30' E 139°53'4 0.6
2014-Nov-26 22:31N 35°29' E 139°58'1111.2
2014-Nov-26 21:33N 35°27' E 139°45'5 4.5
2014-Nov-26 20:33N 35°29' E 139°40'0 0.0
2014-Nov-26 19:33N 35°29' E 139°40'0 0.0
2014-Nov-26 18:33N 35°29' E 139°40'0 0.0
2014-Nov-26 17:33N 35°29' E 139°40'0 0.0
2014-Nov-26 16:33N 35°29' E 139°40'0 0.0
2014-Nov-26 15:33N 35°29' E 139°40'0 0.0
2014-Nov-26 14:33N 35°29' E 139°40'0 0.0
2014-Nov-26 13:33N 35°29' E 139°40'0 0.0
2014-Nov-26 12:33N 35°29' E 139°40'0 0.0
2014-Nov-26 11:33N 35°29' E 139°40'0 0.0
2014-Nov-26 10:33N 35°29' E 139°40'0 0.0
2014-Nov-26 09:33N 35°29' E 139°40'0 0.0
2014-Nov-26 08:30N 35°29' E 139°40'0 0.0
2014-Nov-26 07:33N 35°29' E 139°40'0 0.0
2014-Nov-26 06:33N 35°29' E 139°40'0 0.0
2014-Nov-26 05:33N 35°29' E 139°40'0 0.0
2014-Nov-26 04:33N 35°29' E 139°40'0 0.0
2014-Nov-26 03:33N 35°29' E 139°40'1 1.1
2014-Nov-26 02:33N 35°28' E 139°40'6 5.7
2014-Nov-26 01:31N 35°23' E 139°44'0 0.0
2014-Nov-26 00:31N 35°23' E 139°44'0 0.0
2014-Nov-25 23:31N 35°23' E 139°44'0 0.0
2014-Nov-25 22:31N 35°23' E 139°44'0 0.0
2014-Nov-25 21:31N 35°23' E 139°44'0 0.0
2014-Nov-25 20:31N 35°23' E 139°44'1 0.7
2014-Nov-25 19:33N 35°22' E 139°44'1010.0
2014-Nov-25 18:33N 35°13' E 139°47'  
2014-Nov-23 04:27N 34°02' E 134°57'10 2.1
2014-Nov-22 23:30N 34°07' E 135°08'2 2.1
2014-Nov-22 22:33N 34°08' E 135°06'0 0.0
2014-Nov-22 21:33N 34°08' E 135°06'0 0.1
2014-Nov-22 20:33N 34°08' E 135°06'0 0.0
2014-Nov-22 19:33N 34°08' E 135°06'0 0.0
2014-Nov-22 18:33N 34°08' E 135°06'0 0.0
2014-Nov-22 17:33N 34°08' E 135°06'0 0.0
2014-Nov-22 16:33N 34°08' E 135°06'0 0.0
2014-Nov-22 15:33N 34°08' E 135°06'0 0.5
2014-Nov-22 14:33N 34°08' E 135°06'6 0.3
2014-Nov-21 15:24N 34°03' E 135°00'1112.8
2014-Nov-21 14:33N 34°13' E 135°04'3 3.5
2014-Nov-21 13:33N 34°14' E 135°08'0 0.0
2014-Nov-21 12:34N 34°14' E 135°08'0 0.0
2014-Nov-21 11:34N 34°14' E 135°08'0 0.0
2014-Nov-21 10:33N 34°14' E 135°08'0 0.0
2014-Nov-21 09:33N 34°14' E 135°08'0 0.0
2014-Nov-21 08:33N 34°14' E 135°08'0 0.0
2014-Nov-21 07:33N 34°14' E 135°08'0 0.0
2014-Nov-21 06:28N 34°14' E 135°08'0 0.0
2014-Nov-21 05:28N 34°14' E 135°08'0 0.1
2014-Nov-21 04:31N 34°14' E 135°08'0 0.0
2014-Nov-21 03:28N 34°14' E 135°08'0 0.0
2014-Nov-21 02:28N 34°14' E 135°08'0 0.0
2014-Nov-21 01:28N 34°14' E 135°08'0 0.0
2014-Nov-21 00:04N 34°14' E 135°08'0 0.0
2014-Nov-20 22:25N 34°14' E 135°08'0 0.4
2014-Nov-20 21:34N 34°14' E 135°07'9 9.3
2014-Nov-20 20:34N 34°07' E 135°00'218 8.3
2014-Nov-19 18:15N 31°48' E 131°40'  

Dump ship's entire track history